Time;durP1;ratioP1;P1;durP2;ratioP2;P2;SDS_P1;SDS_P2;PMS_P1;PMS_P2;Temp;Humidity;BMP_temperature;BMP_pressure;BME280_temperature;BME280_humidity;BME280_pressure;Samples;Min_cycle;Max_cycle;Signal;HPM_P1;HPM_P2
2023/12/13 00:02:34;;;;;;;;;;;;;;;;;;10316312;28;19994;-85
2023/12/13 00:07:36;;;;;;;;;;;;;;;;;;10335570;28;19937;-83
2023/12/13 00:12:36;;;;;;;;;;;;;;;;;;10288152;28;19932;-83
2023/12/13 00:17:38;;;;;;;;;;;;;;;;;;10307829;28;19922;-84
2023/12/13 00:22:41;;;;;;;;;;;;;;;;;;10333579;28;19940;-83
2023/12/13 00:27:43;;;;;;;;;;;;;;;;;;10293036;28;19988;-85
2023/12/13 00:32:43;;;;;;;;;;;;;;;;;;10324847;28;19977;-84
2023/12/13 00:37:43;;;;;;;;;;;;;;;;;;10316478;28;19930;-84
2023/12/13 00:42:43;;;;;;;;;;;;;;;;;;10305263;28;19934;-85
2023/12/13 00:47:43;;;;;;;;;;;;;;;;;;10331623;28;19924;-84
2023/12/13 00:52:45;;;;;;;;;;;;;;;;;;10311802;28;19914;-85
2023/12/13 00:57:46;;;;;;;;;;;;;;;;;;10287267;28;19913;-85
2023/12/13 01:02:47;;;;;;;;;;;;;;;;;;10353991;28;19933;-83
2023/12/13 01:07:47;;;;;;;;;;;;;;;;;;10338209;28;19980;-86
2023/12/13 01:12:48;;;;;;;;;;;;;;;;;;10285445;28;20420;-86
2023/12/13 01:17:48;;;;;;;;;;;;;;;;;;10335192;28;19923;-83
2023/12/13 01:22:49;;;;;;;;;;;;;;;;;;10322363;28;19984;-82
2023/12/13 01:27:51;;;;;;;;;;;;;;;;;;10356128;28;20139;-84
2023/12/13 01:32:51;;;;;;;;;;;;;;;;;;10362592;28;19945;-83
2023/12/13 01:37:52;;;;;;;;;;;;;;;;;;10275584;28;19928;-83
2023/12/13 01:42:53;;;;;;;;;;;;;;;;;;10352278;28;19937;-83
2023/12/13 01:47:56;;;;;;;;;;;;;;;;;;10347858;28;19906;-84
2023/12/13 01:52:58;;;;;;;;;;;;;;;;;;10352643;28;19926;-84
2023/12/13 01:57:58;;;;;;;;;;;;;;;;;;10337527;28;19929;-84
2023/12/13 02:02:59;;;;;;;;;;;;;;;;;;10326851;28;19957;-83
2023/12/13 02:08:00;;;;;;;;;;;;;;;;;;10344304;28;19933;-82
2023/12/13 02:13:01;;;;;;;;;;;;;;;;;;10280151;28;19922;-84
2023/12/13 02:18:01;;;;;;;;;;;;;;;;;;10316545;28;19926;-83
2023/12/13 02:23:02;;;;;;;;;;;;;;;;;;10316003;28;19960;-84
2023/12/13 02:28:02;;;;;;;;;;;;;;;;;;10358275;28;19961;-83
2023/12/13 02:33:02;;;;;;;;;;;;;;;;;;10307129;28;19997;-85
2023/12/13 02:38:03;;;;;;;;;;;;;;;;;;10326097;28;19918;-81
2023/12/13 02:43:03;;;;;;;;;;;;;;;;;;10332098;28;20136;-86
2023/12/13 02:48:05;;;;;;;;;;;;;;;;;;10328583;28;20270;-87
2023/12/13 02:53:07;;;;;;;;;;;;;;;;;;10332337;28;19926;-83
2023/12/13 02:58:08;;;;;;;;;;;;;;;;;;10346558;28;19924;-82
2023/12/13 03:03:08;;;;;;;;;;;;;;;;;;10356446;28;19940;-83
2023/12/13 03:08:08;;;;;;;;;;;;;;;;;;10356739;28;19906;-83
2023/12/13 03:13:09;;;;;;;;;;;;;;;;;;10366812;28;19929;-82
2023/12/13 03:18:09;;;;;;;;;;;;;;;;;;10380430;28;19918;-82
2023/12/13 03:23:10;;;;;;;;;;;;;;;;;;10371584;28;19981;-82
2023/12/13 03:28:11;;;;;;;;;;;;;;;;;;10369566;28;19907;-82
2023/12/13 03:33:13;;;;;;;;;;;;;;;;;;10359034;28;19913;-84
2023/12/13 03:38:17;;;;;;;;;;;;;;;;;;10352321;28;19925;-84
2023/12/13 03:43:19;;;;;;;;;;;;;;;;;;10325006;28;19913;-84
2023/12/13 03:48:22;;;;;;;;;;;;;;;;;;10333376;28;19940;-84
2023/12/13 03:53:22;;;;;;;;;;;;;;;;;;10265690;28;19928;-83
2023/12/13 03:58:23;;;;;;;;;;;;;;;;;;10296911;28;19929;-82
2023/12/13 04:03:24;;;;;;;;;;;;;;;;;;10293953;28;19922;-83
2023/12/13 04:08:25;;;;;;;;;;;;;;;;;;10311301;28;19926;-85
2023/12/13 04:13:28;;;;;;;;;;;;;;;;;;10311474;28;19926;-84
2023/12/13 04:18:31;;;;;;;;;;;;;;;;;;10277059;28;19950;-84
2023/12/13 04:23:31;;;;;;;;;;;;;;;;;;10277034;28;20355;-86
2023/12/13 04:28:31;;;;;;;;;;;;;;;;;;10287107;28;19922;-85
2023/12/13 04:33:33;;;;;;;;;;;;;;;;;;10274514;28;20028;-87
2023/12/13 04:38:34;;;;;;;;;;;;;;;;;;10287097;28;19922;-83
2023/12/13 04:43:34;;;;;;;;;;;;;;;;;;10286774;28;19926;-86
2023/12/13 04:48:34;;;;;;;;;;;;;;;;;;10298987;28;19921;-84
2023/12/13 04:53:35;;;;;;;;;;;;;;;;;;10313519;28;19925;-86
2023/12/13 04:58:35;;;;;;;;;;;;;;;;;;10339281;28;19927;-88
2023/12/13 05:03:35;;;;;;;;;;;;;;;;;;10313016;28;19926;-86
2023/12/13 05:08:35;;;;;;;;;;;;;;;;;;10297331;28;19926;-84
2023/12/13 05:13:36;;;;;;;;;;;;;;;;;;10311392;28;19948;-83
2023/12/13 05:18:40;;;;;;;;;;;;;;;;;;10308481;28;19953;-85
2023/12/13 05:23:40;;;;;;;;;;;;;;;;;;10352060;28;19918;-83
2023/12/13 05:28:41;;;;;;;;;;;;;;;;;;10333968;28;19922;-83
2023/12/13 05:33:41;;;;;;;;;;;;;;;;;;10342706;28;20357;-85
2023/12/13 05:38:43;;;;;;;;;;;;;;;;;;10330704;28;20607;-86
2023/12/13 05:43:43;;;;;;;;;;;;;;;;;;10277719;28;20021;-86
2023/12/13 05:48:46;;;;;;;;;;;;;;;;;;10331733;28;19914;-84
2023/12/13 05:53:47;;;;;;;;;;;;;;;;;;10330705;28;20009;-83
2023/12/13 05:58:47;;;;;;;;;;;;;;;;;;10280472;28;20020;-87
2023/12/13 06:03:47;;;;;;;;;;;;;;;;;;10339860;28;19925;-87
2023/12/13 06:08:52;;;;;;;;;;;;;;;;;;10332506;23;20972;-86
2023/12/13 06:13:55;;;;;;;;;;;;;;;;;;10337852;28;19922;-84
2023/12/13 06:18:55;;;;;;;;;;;;;;;;;;10347038;28;19915;-83
2023/12/13 06:23:55;;;;;;;;;;;;;;;;;;10312112;28;20449;-84
2023/12/13 06:28:57;;;;;;;;;;;;;;;;;;10312075;28;19918;-84
2023/12/13 06:34:03;;;;;;;;;;;;;;;;;;10330251;28;20013;-84
2023/12/13 06:39:04;;;;;;;;;;;;;;;;;;10337702;28;19937;-87
2023/12/13 06:44:04;;;;;;;;;;;;;;;;;;10348832;28;19949;-83
2023/12/13 06:49:09;;;;;;;;;;;;;;;;;;10334536;28;19965;-85
2023/12/13 06:54:09;;;;;;;;;;;;;;;;;;10309837;28;19993;-84
2023/12/13 06:59:09;;;;;;;;;;;;;;;;;;10319863;28;20001;-83
2023/12/13 07:04:10;;;;;;;;;;;;;;;;;;10293557;28;19913;-81
2023/12/13 07:09:10;;;;;;;;;;;;;;;;;;10313511;28;20115;-81
2023/12/13 07:14:12;;;;;;;;;;;;;;;;;;10336774;28;19928;-82
2023/12/13 07:19:13;;;;;;;;;;;;;;;;;;10303508;28;19929;-85
2023/12/13 07:24:14;;;;;;;;;;;;;;;;;;10295494;28;19921;-85
2023/12/13 07:29:19;;;;;;;;;;;;;;;;;;10344895;28;19929;-88
2023/12/13 07:34:21;;;;;;;;;;;;;;;;;;10325257;28;19906;-91
2023/12/13 07:39:24;;;;;;;;;;;;;;;;;;10811100;23;19976;-87
2023/12/13 07:44:26;;;;;;;;;;;;;;;;;;10263783;28;19934;-90
2023/12/13 07:49:28;;;;;;;;;;;;;;;;;;10264595;28;19906;-86
2023/12/13 07:54:34;;;;;;;;;;;;;;;;;;11244292;23;19924;-85
2023/12/13 07:59:41;;;;;;;;;;;;;;;;;;10491644;23;19956;-87
2023/12/13 08:04:44;;;;;;;;;;;;;;;;;;10371263;28;19914;-89
2023/12/13 08:09:45;;;;;;;;;;;;;;;;;;10374088;28;19921;-87
2023/12/13 08:14:56;;;;;;;;;;;;;;;;;;10393023;28;19961;-87
2023/12/13 08:36:37;;;;;;;;;;;;;;;;;;10489821;23;19981;-96
2023/12/13 08:41:42;;;;;;;;;;;;;;;;;;10337888;28;19980;-93
2023/12/13 08:46:48;;;;;;;;;;;;;;;;;;10408555;23;20258;-90
2023/12/13 08:51:53;;;;;;;;;;;;;;;;;;10352901;28;19929;-90
2023/12/13 09:19:41;;;;;;;;;;;;;;;;;;10411438;23;19906;-87
2023/12/13 09:30:14;;;;;;;;;;;;;;;;;;10243504;28;19926;-93
2023/12/13 09:35:18;;;;;;;;;;;;;;;;;;10384458;23;19941;-93
2023/12/13 09:40:19;;;;;;;;;;;;;;;;;;10298008;28;19949;-93
2023/12/13 09:45:41;;;;;;;;;;;;;;;;;;10212634;28;20071;-94
2023/12/13 09:50:46;;;;;;;;;;;;;;;;;;10253442;28;19923;-95
2023/12/13 09:55:48;;;;;;;;;;;;;;;;;;10216534;28;19954;-94
2023/12/13 10:00:57;;;;;;;;;;;;;;;;;;10295090;28;19930;-95
2023/12/13 10:06:07;;;;;;;;;;;;;;;;;;10274588;28;19925;-92
2023/12/13 10:11:15;;;;;;;;;;;;;;;;;;10282781;28;19918;-93
2023/12/13 10:16:19;;;;;;;;;;;;;;;;;;10259380;28;19930;-94
2023/12/13 10:21:51;;;;;;;;;;;;;;;;;;10250047;28;19915;-94
2023/12/13 10:26:52;;;;;;;;;;;;;;;;;;10304858;23;20002;-90
2023/12/13 10:31:55;;;;;;;;;;;;;;;;;;10270738;28;19929;-87
2023/12/13 10:37:00;;;;;;;;;;;;;;;;;;10327207;28;20029;-89
2023/12/13 10:42:02;;;;;;;;;;;;;;;;;;10341396;28;19914;-86
2023/12/13 10:47:04;;;;;;;;;;;;;;;;;;10378613;28;19918;-89
2023/12/13 10:52:05;;;;;;;;;;;;;;;;;;10334285;28;19959;-87
2023/12/13 10:57:08;;;;;;;;;;;;;;;;;;10727683;23;20000;-86
2023/12/13 11:02:12;;;;;;;;;;;;;;;;;;10350244;28;19929;-87
2023/12/13 11:07:13;;;;;;;;;;;;;;;;;;11411058;23;19982;-86
2023/12/13 11:12:46;;;;;;;;;;;;;;;;;;10909967;23;19921;-86
2023/12/13 11:17:49;;;;;;;;;;;;;;;;;;10414034;28;19921;-88
2023/12/13 11:22:54;;;;;;;;;;;;;;;;;;10359499;28;19929;-86
2023/12/13 11:27:57;;;;;;;;;;;;;;;;;;10560950;23;19937;-87
2023/12/13 11:44:05;;;;;;;;;;;;;;;;;;11255052;23;19928;-93
2023/12/13 11:49:16;;;;;;;;;;;;;;;;;;10320992;28;19913;-93
2023/12/13 11:54:36;;;;;;;;;;;;;;;;;;10302152;28;19954;-93
2023/12/13 11:59:46;;;;;;;;;;;;;;;;;;10283067;28;19933;-95
2023/12/13 12:10:09;;;;;;;;;;;;;;;;;;10283064;28;20396;-94
2023/12/13 12:15:19;;;;;;;;;;;;;;;;;;10251833;28;19926;-92
2023/12/13 12:20:39;;;;;;;;;;;;;;;;;;10312886;28;19930;-94
2023/12/13 12:25:45;;;;;;;;;;;;;;;;;;10250530;28;19937;-93
2023/12/13 12:30:59;;;;;;;;;;;;;;;;;;10292035;28;19917;-96
2023/12/13 12:36:43;;;;;;;;;;;;;;;;;;10233342;28;19938;-86
2023/12/13 12:42:08;;;;;;;;;;;;;;;;;;10335359;23;20198;-94
2023/12/13 12:47:34;;;;;;;;;;;;;;;;;;10285210;28;20156;-93
2023/12/13 12:52:38;;;;;;;;;;;;;;;;;;10242948;28;19994;-92
2023/12/13 12:57:39;;;;;;;;;;;;;;;;;;10240615;28;19913;-92
2023/12/13 13:02:44;;;;;;;;;;;;;;;;;;10307573;28;19944;-94
2023/12/13 13:07:45;;;;;;;;;;;;;;;;;;10349452;28;19997;-92
2023/12/13 13:12:46;;;;;;;;;;;;;;;;;;10431986;23;19933;-94
2023/12/13 13:17:51;;;;;;;;;;;;;;;;;;10383361;28;19917;-93
2023/12/13 13:22:57;;;;;;;;;;;;;;;;;;10342625;28;19980;-91
2023/12/13 13:27:58;;;;;;;;;;;;;;;;;;10394120;23;19930;-86
2023/12/13 13:32:58;;;;;;;;;;;;;;;;;;10380626;28;19928;-86
2023/12/13 13:37:58;;;;;;;;;;;;;;;;;;10517856;23;19926;-85
2023/12/13 13:43:09;;;;;;;;;;;;;;;;;;10428576;23;19996;-95
2023/12/13 13:48:10;;;;;;;;;;;;;;;;;;10406733;23;19914;-85
2023/12/13 13:53:14;;;;;;;;;;;;;;;;;;10566971;23;20473;-86
2023/12/13 13:58:15;;;;;;;;;;;;;;;;;;10330406;28;19922;-88
2023/12/13 14:08:46;;;;;;;;;;;;;;;;;;10877617;23;20325;-95
2023/12/13 14:24:41;;;;;;;;;;;;;;;;;;10858462;23;19913;-86
2023/12/13 14:40:39;;;;;;;;;;;;;;;;;;10847397;23;20012;-86
2023/12/13 14:45:40;;;;;;;;;;;;;;;;;;10317340;28;19914;-87
2023/12/13 14:50:43;;;;;;;;;;;;;;;;;;10408812;23;19922;-86
2023/12/13 14:55:46;;;;;;;;;;;;;;;;;;10399169;23;19954;-85
2023/12/13 15:00:47;;;;;;;;;;;;;;;;;;10387498;23;20024;-86
2023/12/13 15:05:48;;;;;;;;;;;;;;;;;;10465921;23;20283;-93
2023/12/13 15:11:06;;;;;;;;;;;;;;;;;;10331124;28;19925;-94
2023/12/13 15:16:10;;;;;;;;;;;;;;;;;;10313203;28;19926;-92
2023/12/13 15:21:28;;;;;;;;;;;;;;;;;;10427811;23;19993;-85
2023/12/13 15:26:28;;;;;;;;;;;;;;;;;;10332695;28;19926;-85
2023/12/13 15:31:33;;;;;;;;;;;;;;;;;;10329365;23;19914;-82
2023/12/13 15:58:57;;;;;;;;;;;;;;;;;;10297615;26;20423;-84
2023/12/13 16:04:00;;;;;;;;;;;;;;;;;;10317906;28;19977;-84
2023/12/13 16:09:09;;;;;;;;;;;;;;;;;;10337745;28;19922;-85
2023/12/13 16:14:12;;;;;;;;;;;;;;;;;;10287575;28;20023;-83
2023/12/13 16:25:08;;;;;;;;;;;;;;;;;;10305064;28;19925;-83
2023/12/13 16:30:11;;;;;;;;;;;;;;;;;;10334674;28;19930;-84
2023/12/13 16:35:13;;;;;;;;;;;;;;;;;;10318205;28;19931;-83
2023/12/13 16:40:13;;;;;;;;;;;;;;;;;;10308279;28;20008;-83
2023/12/13 16:45:14;;;;;;;;;;;;;;;;;;10325544;28;19913;-85
2023/12/13 16:50:15;;;;;;;;;;;;;;;;;;10286867;28;19952;-84
2023/12/13 16:55:18;;;;;;;;;;;;;;;;;;10316174;28;20364;-84
2023/12/13 17:00:19;;;;;;;;;;;;;;;;;;10274627;28;19945;-82
2023/12/13 17:05:19;;;;;;;;;;;;;;;;;;10267267;28;19925;-83
2023/12/13 17:10:19;;;;;;;;;;;;;;;;;;10294760;28;19918;-86
2023/12/13 17:15:20;;;;;;;;;;;;;;;;;;10305248;28;20023;-83
2023/12/13 17:20:22;;;;;;;;;;;;;;;;;;10286022;28;20006;-83
2023/12/13 17:25:24;;;;;;;;;;;;;;;;;;10292510;28;19988;-82
2023/12/13 17:30:24;;;;;;;;;;;;;;;;;;10325277;28;19936;-83
2023/12/13 17:35:25;;;;;;;;;;;;;;;;;;10336453;28;19910;-82
2023/12/13 17:40:25;;;;;;;;;;;;;;;;;;10323708;28;19946;-84
2023/12/13 17:45:41;;;;;;;;;;;;;;;;;;10356452;28;19931;-84
2023/12/13 17:50:55;;;;;;;;;;;;;;;;;;10293636;28;20032;-83
2023/12/13 17:55:55;;;;;;;;;;;;;;;;;;10319422;28;20012;-89
2023/12/13 18:00:58;;;;;;;;;;;;;;;;;;10312608;28;20015;-85
2023/12/13 18:05:59;;;;;;;;;;;;;;;;;;10332340;28;19953;-87
2023/12/13 18:11:00;;;;;;;;;;;;;;;;;;10314458;28;19973;-84
2023/12/13 18:16:00;;;;;;;;;;;;;;;;;;10289880;28;19925;-85
2023/12/13 18:21:03;;;;;;;;;;;;;;;;;;10268663;28;19962;-84
2023/12/13 18:26:04;;;;;;;;;;;;;;;;;;10227666;28;19985;-88
2023/12/13 18:31:05;;;;;;;;;;;;;;;;;;10251935;28;20058;-87
2023/12/13 18:36:05;;;;;;;;;;;;;;;;;;10259118;23;20366;-92
2023/12/13 18:41:09;;;;;;;;;;;;;;;;;;10286360;28;19925;-91
2023/12/13 18:46:43;;;;;;;;;;;;;;;;;;10279435;28;19930;-91
2023/12/13 18:51:50;;;;;;;;;;;;;;;;;;10202573;28;20447;-92
2023/12/13 18:57:08;;;;;;;;;;;;;;;;;;10267111;28;19921;-90
2023/12/13 19:07:34;;;;;;;;;;;;;;;;;;10279449;28;22581;-91
2023/12/13 19:12:38;;;;;;;;;;;;;;;;;;10347798;28;19930;-90
2023/12/13 19:18:00;;;;;;;;;;;;;;;;;;10320318;28;20810;-90
2023/12/13 19:23:22;;;;;;;;;;;;;;;;;;10278006;28;20016;-92
2023/12/13 19:28:26;;;;;;;;;;;;;;;;;;10327174;28;19941;-93
2023/12/13 19:34:25;;;;;;;;;;;;;;;;;;10331470;28;19953;-92
2023/12/13 19:39:51;;;;;;;;;;;;;;;;;;10282859;28;20264;-90
2023/12/13 19:44:57;;;;;;;;;;;;;;;;;;10296299;28;19922;-91
2023/12/13 19:50:08;;;;;;;;;;;;;;;;;;10263985;28;19937;-89
2023/12/13 19:55:35;;;;;;;;;;;;;;;;;;10814596;23;2271233;-85
2023/12/13 20:00:36;;;;;;;;;;;;;;;;;;10885728;23;19928;-86
2023/12/13 20:05:37;;;;;;;;;;;;;;;;;;10350520;28;19964;-85
2023/12/13 20:15:54;;;;;;;;;;;;;;;;;;10674478;23;19929;-85
2023/12/13 20:20:56;;;;;;;;;;;;;;;;;;10710588;23;19930;-86
2023/12/13 20:26:00;;;;;;;;;;;;;;;;;;10290101;28;19925;-87
2023/12/13 20:31:02;;;;;;;;;;;;;;;;;;10295356;28;19921;-87
2023/12/13 20:36:06;;;;;;;;;;;;;;;;;;10294598;28;19961;-87
2023/12/13 20:41:09;;;;;;;;;;;;;;;;;;10278162;28;19934;-85
2023/12/13 20:46:09;;;;;;;;;;;;;;;;;;10310757;28;19933;-85
2023/12/13 20:51:10;;;;;;;;;;;;;;;;;;10300822;28;19994;-84
2023/12/13 20:56:11;;;;;;;;;;;;;;;;;;10273769;28;19933;-84
2023/12/13 21:01:15;;;;;;;;;;;;;;;;;;10299475;28;19944;-85
2023/12/13 21:06:15;;;;;;;;;;;;;;;;;;10281725;28;19929;-83
2023/12/13 21:11:16;;;;;;;;;;;;;;;;;;10297704;28;19968;-84
2023/12/13 21:16:17;;;;;;;;;;;;;;;;;;10267945;28;19918;-88
2023/12/13 21:21:18;;;;;;;;;;;;;;;;;;10232741;28;19931;-85
2023/12/13 21:26:19;;;;;;;;;;;;;;;;;;10275229;28;19922;-84
2023/12/13 21:31:19;;;;;;;;;;;;;;;;;;10315991;28;19921;-83
2023/12/13 21:36:22;;;;;;;;;;;;;;;;;;10270333;28;20389;-85
2023/12/13 21:41:22;;;;;;;;;;;;;;;;;;10272790;28;19933;-83
2023/12/13 21:46:23;;;;;;;;;;;;;;;;;;10288247;28;19925;-84
2023/12/13 21:51:23;;;;;;;;;;;;;;;;;;10279498;28;19933;-85
2023/12/13 21:56:25;;;;;;;;;;;;;;;;;;10265272;28;20002;-84
2023/12/13 22:01:28;;;;;;;;;;;;;;;;;;10247080;28;19965;-86
2023/12/13 22:06:29;;;;;;;;;;;;;;;;;;10256941;28;19921;-85
2023/12/13 22:11:29;;;;;;;;;;;;;;;;;;10269480;28;19933;-84
2023/12/13 22:16:29;;;;;;;;;;;;;;;;;;10285534;28;19977;-86
2023/12/13 22:21:30;;;;;;;;;;;;;;;;;;10285651;28;19930;-84
2023/12/13 22:26:31;;;;;;;;;;;;;;;;;;10269122;28;20251;-84
2023/12/13 22:31:33;;;;;;;;;;;;;;;;;;10272269;28;19926;-83
2023/12/13 22:36:33;;;;;;;;;;;;;;;;;;10285664;28;20291;-84
2023/12/13 22:41:33;;;;;;;;;;;;;;;;;;10290844;28;19962;-83
2023/12/13 22:46:33;;;;;;;;;;;;;;;;;;10308453;28;19979;-84
2023/12/13 22:51:34;;;;;;;;;;;;;;;;;;10276010;28;20004;-86
2023/12/13 22:56:34;;;;;;;;;;;;;;;;;;10260366;28;19957;-85
2023/12/13 23:01:36;;;;;;;;;;;;;;;;;;10275463;28;19934;-84
2023/12/13 23:06:37;;;;;;;;;;;;;;;;;;10290663;28;20040;-84
2023/12/13 23:11:37;;;;;;;;;;;;;;;;;;10272329;28;19922;-83
2023/12/13 23:16:38;;;;;;;;;;;;;;;;;;10328417;28;19921;-83
2023/12/13 23:21:39;;;;;;;;;;;;;;;;;;10345441;28;19913;-85
2023/12/13 23:26:40;;;;;;;;;;;;;;;;;;10284756;28;20009;-85
2023/12/13 23:31:43;;;;;;;;;;;;;;;;;;10294013;28;19914;-83
2023/12/13 23:36:43;;;;;;;;;;;;;;;;;;10265271;28;20319;-82
2023/12/13 23:41:43;;;;;;;;;;;;;;;;;;10317461;28;19930;-82
2023/12/13 23:46:44;;;;;;;;;;;;;;;;;;10322724;28;19928;-81
2023/12/13 23:51:45;;;;;;;;;;;;;;;;;;10298146;28;19921;-83
2023/12/13 23:56:45;;;;;;;;;;;;;;;;;;10296343;28;19988;-81
